createdAt,value
2022-08-12T00:00:36.862Z,4.03
2022-08-12T00:03:26.821Z,4.57
2022-08-12T00:06:16.663Z,5.43
2022-08-12T00:09:03.114Z,4.95
2022-08-12T00:11:50.460Z,5.15
2022-08-12T00:14:37.689Z,4.85
2022-08-12T00:17:25.877Z,4.78
2022-08-12T00:20:13.946Z,4.43
2022-08-12T00:23:02.929Z,5.07
2022-08-12T00:26:21.140Z,4.82
2022-08-12T00:29:05.752Z,4.97
2022-08-12T00:31:52.183Z,6.10
2022-08-12T00:34:40.365Z,4.75
2022-08-12T00:37:28.334Z,5.47
2022-08-12T00:40:15.943Z,6.30
2022-08-12T00:42:46.802Z,6.25
2022-08-12T00:45:17.021Z,6.60
2022-08-12T00:47:47.065Z,4.85
2022-08-12T00:50:20.052Z,5.80
2022-08-12T00:52:53.864Z,6.07
2022-08-12T00:55:24.085Z,6.53
2022-08-12T00:57:53.770Z,4.90
2022-08-12T01:00:25.154Z,5.35
2022-08-12T01:02:58.941Z,6.13
2022-08-12T01:05:45.590Z,6.07
2022-08-12T01:08:45.789Z,5.57
2022-08-12T01:11:32.474Z,5.88
2022-08-12T01:14:05.438Z,5.95
2022-08-12T01:16:35.974Z,6.07
2022-08-12T01:19:06.641Z,5.65
2022-08-12T01:22:08.250Z,5.82
2022-08-12T01:24:58.109Z,6.00
2022-08-12T01:27:29.082Z,4.78
2022-08-12T01:30:01.508Z,5.63
2022-08-12T01:32:37.310Z,4.97
2022-08-12T01:35:10.976Z,3.83
2022-08-12T01:37:49.025Z,4.18
2022-08-12T01:40:33.444Z,4.30
2022-08-12T01:43:08.623Z,4.28
2022-08-12T01:45:47.681Z,3.95
2022-08-12T01:48:26.386Z,3.75
2022-08-12T01:51:06.756Z,4.03
2022-08-12T01:53:52.122Z,4.82
2022-08-12T01:56:27.806Z,3.92
2022-08-12T01:59:21.522Z,4.68
2022-08-12T02:01:53.736Z,3.58
2022-08-12T02:04:50.161Z,3.80
2022-08-12T02:07:53.013Z,3.67
2022-08-12T02:10:52.068Z,3.38
2022-08-12T02:13:51.153Z,3.85
2022-08-12T02:16:31.899Z,2.58
2022-08-12T02:19:23.059Z,3.45
2022-08-12T02:22:05.738Z,3.05
2022-08-12T02:24:39.038Z,3.67
2022-08-12T02:27:10.842Z,3.53
2022-08-12T02:29:43.496Z,3.78
2022-08-12T02:32:13.158Z,3.88
2022-08-12T02:34:46.140Z,3.63
2022-08-12T02:37:17.202Z,3.35
2022-08-12T02:39:50.939Z,3.83
2022-08-12T02:42:24.384Z,3.67
2022-08-12T02:44:58.220Z,3.70
2022-08-12T02:47:58.297Z,4.05
2022-08-12T02:50:28.498Z,4.28
2022-08-12T02:52:59.809Z,3.38
2022-08-12T02:55:34.830Z,4.65
2022-08-12T02:58:12.509Z,4.60
2022-08-12T03:00:46.708Z,4.37
2022-08-12T03:03:16.870Z,5.28
2022-08-12T03:05:52.503Z,4.07
2022-08-12T03:08:32.467Z,5.25
2022-08-12T03:11:06.244Z,4.55
2022-08-12T03:13:52.122Z,4.70
2022-08-12T03:16:24.349Z,3.78
2022-08-12T03:18:54.866Z,4.75
2022-08-12T03:21:53.159Z,5.15
2022-08-12T03:24:18.850Z,4.75
2022-08-12T03:26:52.986Z,5.25
2022-08-12T03:29:30.324Z,5.80
2022-08-12T03:32:04.836Z,5.10
2022-08-12T03:34:36.470Z,4.63
2022-08-12T03:37:08.085Z,4.63
2022-08-12T03:39:45.000Z,5.90
2022-08-12T03:42:22.838Z,5.25
2022-08-12T03:45:31.336Z,4.53
2022-08-12T03:48:25.667Z,4.30
2022-08-12T03:51:13.437Z,4.80
2022-08-12T03:54:01.113Z,5.50
2022-08-12T03:56:48.057Z,4.80
2022-08-12T03:59:35.119Z,5.40
2022-08-12T04:02:04.794Z,4.20
2022-08-12T04:04:37.893Z,4.63
2022-08-12T04:07:12.541Z,5.07
2022-08-12T04:09:44.646Z,4.55
2022-08-12T04:12:32.792Z,5.18
2022-08-12T04:15:03.912Z,4.75
2022-08-12T04:17:35.282Z,5.15
2022-08-12T04:20:11.596Z,4.25
2022-08-12T04:22:41.305Z,5.50
2022-08-12T04:25:13.384Z,4.53
2022-08-12T04:27:47.480Z,4.95
2022-08-12T04:31:07.913Z,4.53
2022-08-12T04:33:38.641Z,4.22
2022-08-12T04:36:10.646Z,5.75
2022-08-12T04:38:40.585Z,5.15
2022-08-12T04:41:11.387Z,4.80
2022-08-12T04:44:01.423Z,4.70
2022-08-12T04:46:33.610Z,4.82
2022-08-12T04:49:04.734Z,5.07
2022-08-12T04:51:36.764Z,5.22
2022-08-12T04:54:07.090Z,4.60
2022-08-12T04:56:37.726Z,4.50
2022-08-12T04:59:07.962Z,5.75
2022-08-12T05:01:37.997Z,4.53
2022-08-12T05:04:09.714Z,5.35
2022-08-12T05:06:41.155Z,4.82
2022-08-12T05:09:13.384Z,5.00
2022-08-12T05:11:53.715Z,4.78
2022-08-12T05:14:24.359Z,5.50
2022-08-12T05:16:54.546Z,5.07
2022-08-12T05:19:24.091Z,4.85
2022-08-12T05:21:54.985Z,4.70
2022-08-12T05:24:25.066Z,4.80
2022-08-12T05:26:54.865Z,4.13
2022-08-12T05:30:06.931Z,4.70
2022-08-12T05:32:20.858Z,4.35
2022-08-12T05:34:50.509Z,4.00
2022-08-12T05:37:22.428Z,3.80
2022-08-12T05:39:52.305Z,4.57
2022-08-12T05:45:12.505Z,3.60
2022-08-12T05:50:23.618Z,2.55
2022-08-12T05:52:55.058Z,2.90
2022-08-12T05:55:29.360Z,2.28
2022-08-12T05:58:02.450Z,3.47
2022-08-12T06:00:33.182Z,9.75
2022-08-12T06:03:04.312Z,3.33
2022-08-12T06:05:53.230Z,2.33
2022-08-12T06:08:27.743Z,2.90
2022-08-12T06:10:57.563Z,2.60
2022-08-12T06:16:18.125Z,2.47
2022-08-12T06:18:49.023Z,3.15
2022-08-12T06:21:21.641Z,2.80
2022-08-12T06:23:54.748Z,2.58
2022-08-12T06:26:24.073Z,3.38
2022-08-12T06:28:55.734Z,2.47
2022-08-12T06:31:27.180Z,2.40
2022-08-12T06:34:52.868Z,2.42
2022-08-12T06:36:47.335Z,2.30
2022-08-12T06:39:21.081Z,2.50
2022-08-12T06:42:42.105Z,2.70
2022-08-12T06:44:57.618Z,2.38
2022-08-12T06:47:27.102Z,1.90
2022-08-12T06:49:56.583Z,1.73
2022-08-12T06:52:26.977Z,1.77
2022-08-12T06:54:58.859Z,1.97
2022-08-12T06:58:05.897Z,1.65
2022-08-12T07:02:59.295Z,2.25
2022-08-12T07:05:47.354Z,1.85
2022-08-12T07:08:20.958Z,1.75
2022-08-12T07:10:59.479Z,3.30
2022-08-12T07:13:31.182Z,2.20
2022-08-12T07:16:01.569Z,1.80
2022-08-12T07:18:33.330Z,2.05
2022-08-12T07:21:04.337Z,1.55
2022-08-12T07:23:35.882Z,1.50
2022-08-12T07:26:08.289Z,3.92
2022-08-12T07:28:42.066Z,1.85
2022-08-12T07:31:12.774Z,2.45
2022-08-12T07:33:50.216Z,1.75
2022-08-12T07:36:22.887Z,1.95
2022-08-12T07:38:52.889Z,3.05
2022-08-12T07:41:26.405Z,1.38
2022-08-12T07:44:04.309Z,2.13
2022-08-12T07:46:39.149Z,1.75
2022-08-12T07:49:13.538Z,1.70
2022-08-12T07:51:45.559Z,1.50
2022-08-12T07:54:17.165Z,1.55
2022-08-12T07:56:48.079Z,2.15
2022-08-12T07:59:17.737Z,1.20
2022-08-12T08:01:47.481Z,1.17
2022-08-12T08:04:33.800Z,1.65
2022-08-12T08:07:03.777Z,1.65
2022-08-12T08:09:33.231Z,1.23
2022-08-12T08:12:21.023Z,1.60
2022-08-12T08:14:56.153Z,1.20
2022-08-12T08:17:26.110Z,1.30
2022-08-12T08:20:03.105Z,1.27
2022-08-12T08:22:41.660Z,1.17
2022-08-12T08:25:20.390Z,1.15
2022-08-12T08:28:07.605Z,0.88
2022-08-12T08:30:40.140Z,0.73
2022-08-12T08:33:23.415Z,0.93
2022-08-12T08:36:03.390Z,0.70
2022-08-12T08:38:35.159Z,0.95
2022-08-12T08:42:15.681Z,0.90
2022-08-12T08:44:14.269Z,0.98
2022-08-12T08:46:44.774Z,0.75
2022-08-12T08:49:15.953Z,0.77
2022-08-12T08:51:46.750Z,0.90
2022-08-12T08:56:46.643Z,0.60
2022-08-12T08:59:19.569Z,1.05
2022-08-12T09:01:49.619Z,1.27
2022-08-12T09:05:09.417Z,0.77
2022-08-12T09:07:17.959Z,0.52
2022-08-12T09:10:04.042Z,0.80
2022-08-12T09:12:56.666Z,1.02
2022-08-12T09:15:35.694Z,0.60
2022-08-12T09:18:08.906Z,0.70
2022-08-12T09:20:39.945Z,1.95
2022-08-12T09:23:59.655Z,1.80
2022-08-12T09:26:04.009Z,1.15
2022-08-12T09:28:37.016Z,1.02
2022-08-12T09:32:06.138Z,1.38
2022-08-12T09:34:26.088Z,2.65
2022-08-12T09:40:05.288Z,0.65
2022-08-12T09:42:48.351Z,0.63
2022-08-12T09:46:05.483Z,0.82
2022-08-12T09:48:21.975Z,1.10
2022-08-12T09:50:55.693Z,0.60
2022-08-12T09:53:38.347Z,0.68
2022-08-12T09:56:59.943Z,1.33
2022-08-12T09:59:10.170Z,1.20
2022-08-12T10:02:52.944Z,0.85
2022-08-12T10:04:31.624Z,1.02
2022-08-12T10:07:03.285Z,1.50
2022-08-12T10:09:57.459Z,1.40
2022-08-12T10:12:39.767Z,1.20
2022-08-12T10:15:15.483Z,1.27
2022-08-12T10:18:06.859Z,1.15
2022-08-12T10:20:39.724Z,1.05
2022-08-12T10:23:09.385Z,1.20
2022-08-12T10:26:35.515Z,1.10
2022-08-12T10:30:38.783Z,0.80
2022-08-12T10:32:21.246Z,1.17
2022-08-12T10:34:53.272Z,1.20
2022-08-12T10:38:38.853Z,1.10
2022-08-12T10:40:20.508Z,1.45
2022-08-12T10:43:09.350Z,0.65
2022-08-12T10:45:49.806Z,0.85
2022-08-12T10:48:33.256Z,0.70
2022-08-12T10:51:56.473Z,2.08
2022-08-12T10:54:00.742Z,2.97
2022-08-12T10:56:37.179Z,1.00
2022-08-12T10:59:10.761Z,1.02
2022-08-12T11:04:17.230Z,1.38
2022-08-12T11:04:44.819Z,0.80
2022-08-12T11:08:34.826Z,0.90
2022-08-12T11:10:11.252Z,0.82
2022-08-12T11:12:58.338Z,0.70
2022-08-12T11:16:02.676Z,0.93
2022-08-12T11:18:19.798Z,0.65
2022-08-12T11:20:54.579Z,0.55
2022-08-12T11:23:37.148Z,1.08
2022-08-12T11:26:09.855Z,1.20
2022-08-12T11:28:39.496Z,1.55
2022-08-12T11:31:14.407Z,0.93
2022-08-12T11:34:06.719Z,0.93
2022-08-12T11:36:39.128Z,1.20
2022-08-12T11:39:11.338Z,1.20
2022-08-12T11:41:43.987Z,0.80
2022-08-12T11:44:37.328Z,1.30
2022-08-12T11:47:09.425Z,1.85
2022-08-12T11:49:39.025Z,0.75
2022-08-12T11:52:17.795Z,1.40
2022-08-12T11:54:58.550Z,1.05
2022-08-12T11:58:14.251Z,0.98
2022-08-12T12:02:03.159Z,1.45
2022-08-12T12:03:12.320Z,0.90
2022-08-12T12:05:46.806Z,0.47
2022-08-12T12:08:40.934Z,1.40
2022-08-12T12:11:12.219Z,1.20
2022-08-12T12:14:07.684Z,1.08
2022-08-12T12:16:33.762Z,0.90
2022-08-12T12:19:10.600Z,1.17
2022-08-12T12:21:47.771Z,1.67
2022-08-12T12:24:21.892Z,0.80
2022-08-12T12:27:00.798Z,0.90
2022-08-12T12:30:19.551Z,0.90
2022-08-12T12:32:29.473Z,1.10
2022-08-12T12:35:14.211Z,2.10
2022-08-12T12:38:04.589Z,1.08
2022-08-12T12:40:44.145Z,1.60
2022-08-12T12:43:14.062Z,1.10
2022-08-12T12:45:46.704Z,1.90
2022-08-12T12:48:17.760Z,2.05
2022-08-12T12:51:10.082Z,0.93
2022-08-12T12:54:06.491Z,1.20
2022-08-12T12:56:34.594Z,1.17
2022-08-12T12:59:06.349Z,1.27
2022-08-12T13:01:41.840Z,1.10
2022-08-12T13:04:14.421Z,1.17
2022-08-12T13:06:44.573Z,1.27
2022-08-12T13:09:14.016Z,1.98
2022-08-12T13:11:44.892Z,1.50
2022-08-12T13:14:29.551Z,1.38
2022-08-12T13:17:03.278Z,1.20
2022-08-12T13:19:38.794Z,1.15
2022-08-12T13:22:23.771Z,1.15
2022-08-12T13:24:56.827Z,1.63
2022-08-12T13:27:35.136Z,1.10
2022-08-12T13:30:10.986Z,1.45
2022-08-12T13:32:57.347Z,1.30
2022-08-12T13:35:33.169Z,2.25
2022-08-12T13:38:09.637Z,0.88
2022-08-12T13:40:40.812Z,1.83
2022-08-12T13:43:15.676Z,1.00
2022-08-12T13:46:12.089Z,0.88
2022-08-12T13:48:45.184Z,1.27
2022-08-12T13:51:24.157Z,1.55
2022-08-12T13:56:34.742Z,1.10
2022-08-12T13:59:08.666Z,1.10
2022-08-12T14:01:40.557Z,1.45
2022-08-12T14:04:12.661Z,0.90
2022-08-12T14:06:43.496Z,1.10
2022-08-12T14:09:18.290Z,0.57
2022-08-12T14:11:59.497Z,0.75
2022-08-12T14:14:31.114Z,0.85
2022-08-12T14:17:05.462Z,1.00
2022-08-12T14:20:00.713Z,0.93
2022-08-12T14:22:32.319Z,0.73
2022-08-12T14:25:03.182Z,1.00
2022-08-12T14:28:02.496Z,0.98
2022-08-12T14:30:29.668Z,1.13
2022-08-12T14:33:03.433Z,0.45
2022-08-12T14:35:44.760Z,0.75
2022-08-12T14:38:24.210Z,1.15
2022-08-12T14:40:58.937Z,1.50
2022-08-12T14:43:31.402Z,0.77
2022-08-12T14:46:03.902Z,1.00
2022-08-12T14:48:34.095Z,1.00
2022-08-12T14:53:26.703Z,0.90
2022-08-12T14:55:53.706Z,1.20
2022-08-12T14:59:57.499Z,1.25
2022-08-12T15:02:29.901Z,2.85
2022-08-12T15:05:03.771Z,4.55
2022-08-12T15:07:49.513Z,1.40
2022-08-12T15:10:31.188Z,1.52
2022-08-12T15:13:07.141Z,1.13
2022-08-12T15:15:45.431Z,1.40
2022-08-12T15:18:21.668Z,0.90
2022-08-12T15:20:52.501Z,1.05
2022-08-12T15:23:29.148Z,1.05
2022-08-12T15:26:03.900Z,0.82
2022-08-12T15:28:36.079Z,0.90
2022-08-12T15:31:21.662Z,1.20
2022-08-12T15:33:58.111Z,1.30
2022-08-12T15:36:53.812Z,1.35
2022-08-12T15:39:19.084Z,0.90
2022-08-12T15:41:50.726Z,1.02
2022-08-12T15:44:37.811Z,0.85
2022-08-12T15:47:12.329Z,0.90
2022-08-12T15:49:59.999Z,0.82
2022-08-12T15:52:31.190Z,0.90
2022-08-12T15:55:06.604Z,0.80
2022-08-12T15:57:53.958Z,0.70
2022-08-12T16:00:33.006Z,0.70
2022-08-12T16:03:05.422Z,0.70
2022-08-12T16:06:19.016Z,0.70
2022-08-12T16:08:27.952Z,0.57
2022-08-12T16:10:59.622Z,0.60
2022-08-12T16:13:34.342Z,1.30
2022-08-12T16:16:22.450Z,1.00
2022-08-12T16:19:00.733Z,1.35
2022-08-12T16:21:51.291Z,0.77
2022-08-12T16:24:22.377Z,0.70
2022-08-12T16:26:55.162Z,0.50
2022-08-12T16:29:52.429Z,0.80
2022-08-12T16:32:31.899Z,0.60
2022-08-12T16:35:16.510Z,0.85
2022-08-12T16:38:25.578Z,1.00
2022-08-12T16:40:37.084Z,0.80
2022-08-12T16:46:04.180Z,0.90
2022-08-12T16:48:38.054Z,1.10
2022-08-12T16:51:10.389Z,1.30
2022-08-12T16:53:44.096Z,1.33
2022-08-12T16:56:17.196Z,1.08
2022-08-12T16:58:49.229Z,0.73
2022-08-12T17:01:21.890Z,1.30
2022-08-12T17:04:08.291Z,1.02
2022-08-12T17:06:44.168Z,1.27
2022-08-12T17:09:17.880Z,1.35
2022-08-12T17:11:49.534Z,1.08
2022-08-12T17:14:23.635Z,1.85
2022-08-12T17:16:56.130Z,1.70
2022-08-12T17:20:16.246Z,1.70
2022-08-12T17:22:21.790Z,1.40
2022-08-12T17:24:55.932Z,1.63
2022-08-12T17:27:30.947Z,1.55
2022-08-12T17:30:13.341Z,1.30
2022-08-12T17:32:44.453Z,1.73
2022-08-12T17:35:29.970Z,1.92
2022-08-12T17:38:11.624Z,1.50
2022-08-12T17:40:43.466Z,1.98
2022-08-12T17:43:54.854Z,1.92
2022-08-12T17:46:12.737Z,1.83
2022-08-12T17:48:55.444Z,1.98
2022-08-12T17:51:26.469Z,2.10
2022-08-12T17:54:11.706Z,2.30
2022-08-12T17:56:44.273Z,2.08
2022-08-12T17:59:47.166Z,2.38
2022-08-12T18:02:08.940Z,2.63
2022-08-12T18:05:04.899Z,3.13
2022-08-12T18:07:39.172Z,1.67
2022-08-12T18:10:09.774Z,1.52
2022-08-12T18:12:42.753Z,2.03
2022-08-12T18:15:21.490Z,1.95
2022-08-12T18:18:00.165Z,2.00
2022-08-12T18:20:35.266Z,1.92
2022-08-12T18:23:07.546Z,2.25
2022-08-12T18:26:12.636Z,2.30
2022-08-12T18:28:47.963Z,4.03
2022-08-12T18:31:19.169Z,2.63
2022-08-12T18:33:53.917Z,3.08
2022-08-12T18:36:23.857Z,2.00
2022-08-12T18:38:56.229Z,1.90
2022-08-12T18:41:33.544Z,2.53
2022-08-12T18:44:09.722Z,2.28
2022-08-12T18:46:53.770Z,2.00
2022-08-12T18:49:38.737Z,2.22
2022-08-12T18:52:11.774Z,1.98
2022-08-12T18:54:48.901Z,2.30
2022-08-12T18:58:05.806Z,3.47
2022-08-12T19:00:21.379Z,1.65
2022-08-12T19:02:53.450Z,2.83
2022-08-12T19:05:53.320Z,2.63
2022-08-12T19:08:16.591Z,2.22
2022-08-12T19:10:50.346Z,2.03
2022-08-12T19:13:39.771Z,2.65
2022-08-12T19:16:12.848Z,2.50
2022-08-12T19:18:44.953Z,2.22
2022-08-12T19:21:20.396Z,2.15
2022-08-12T19:24:12.572Z,2.40
2022-08-12T19:26:43.372Z,2.75
2022-08-12T19:29:13.511Z,2.38
2022-08-12T19:31:57.842Z,2.30
2022-08-12T19:37:26.816Z,2.67
2022-08-12T19:40:09.601Z,1.52
2022-08-12T19:43:00.947Z,1.98
2022-08-12T19:45:43.711Z,2.35
2022-08-12T19:48:20.465Z,4.00
2022-08-12T19:50:52.768Z,2.00
2022-08-12T19:53:27.588Z,2.22
2022-08-12T19:55:58.273Z,1.65
2022-08-12T19:58:29.009Z,3.22
2022-08-12T20:00:58.641Z,1.70
2022-08-12T20:03:38.630Z,2.03
2022-08-12T20:06:15.506Z,1.88
2022-08-12T20:08:56.000Z,1.55
2022-08-12T20:12:13.088Z,1.42
2022-08-12T20:14:19.660Z,1.90
2022-08-12T20:16:57.931Z,1.95
2022-08-12T20:20:01.052Z,1.83
2022-08-12T20:22:29.909Z,2.15
2022-08-12T20:25:07.218Z,2.42
2022-08-12T20:28:02.693Z,2.22
2022-08-12T20:30:35.197Z,1.77
2022-08-12T20:33:32.401Z,2.20
2022-08-12T20:36:39.977Z,2.30
2022-08-12T20:39:01.372Z,1.80
2022-08-12T20:41:34.910Z,2.28
2022-08-12T20:44:05.664Z,1.75
2022-08-12T20:46:46.878Z,2.85
2022-08-12T20:49:17.957Z,2.13
2022-08-12T20:51:55.739Z,2.33
2022-08-12T20:54:32.836Z,1.90
2022-08-12T20:57:09.635Z,2.13
2022-08-12T20:59:47.828Z,7.05
2022-08-12T21:02:24.094Z,2.17
2022-08-12T21:05:16.603Z,2.38
2022-08-12T21:07:52.291Z,2.22
2022-08-12T21:10:26.486Z,2.25
2022-08-12T21:12:57.898Z,2.00
2022-08-12T21:15:53.429Z,1.70
2022-08-12T21:18:26.933Z,2.13
2022-08-12T21:20:59.200Z,2.10
2022-08-12T21:23:30.753Z,2.85
2022-08-12T21:26:11.137Z,1.88
2022-08-12T21:28:58.535Z,1.83
2022-08-12T21:32:46.966Z,1.80
2022-08-12T21:34:26.295Z,2.10
2022-08-12T21:37:13.220Z,2.08
2022-08-12T21:39:56.331Z,1.92
2022-08-12T21:42:29.403Z,1.95
2022-08-12T21:45:46.021Z,1.85
2022-08-12T21:47:53.557Z,2.33
2022-08-12T21:50:26.014Z,2.38
2022-08-12T21:52:59.414Z,2.13
2022-08-12T21:55:47.407Z,2.13
2022-08-12T21:58:22.803Z,2.00
2022-08-12T22:00:54.289Z,2.67
2022-08-12T22:04:03.319Z,2.35
2022-08-12T22:06:43.245Z,2.40
2022-08-12T22:09:15.746Z,2.00
2022-08-12T22:11:59.304Z,2.58
2022-08-12T22:14:30.723Z,1.88
2022-08-12T22:17:05.123Z,2.25
2022-08-12T22:19:36.766Z,2.25
2022-08-12T22:22:06.869Z,2.13
2022-08-12T22:24:40.047Z,2.03
2022-08-12T22:27:31.532Z,2.20
2022-08-12T22:30:19.621Z,2.10
2022-08-12T22:32:54.789Z,2.10
2022-08-12T22:35:47.366Z,1.88
2022-08-12T22:38:24.272Z,2.17
2022-08-12T22:41:01.019Z,2.25
2022-08-12T22:43:59.795Z,2.60
2022-08-12T22:46:52.824Z,2.78
2022-08-12T22:49:44.771Z,2.00
2022-08-12T22:52:18.446Z,2.08
2022-08-12T22:55:02.621Z,2.67
2022-08-12T22:57:54.010Z,2.47
2022-08-12T23:00:27.400Z,1.80
2022-08-12T23:03:02.943Z,2.17
2022-08-12T23:06:10.657Z,2.13
2022-08-12T23:08:32.071Z,2.17
2022-08-12T23:11:05.804Z,2.30
2022-08-12T23:13:55.317Z,2.47
2022-08-12T23:16:31.753Z,2.38
2022-08-12T23:19:10.588Z,2.45
2022-08-12T23:22:05.559Z,2.40
2022-08-12T23:24:55.711Z,2.50
2022-08-12T23:27:51.957Z,2.53
2022-08-12T23:30:32.472Z,2.40
2022-08-12T23:33:19.786Z,2.13
2022-08-12T23:36:02.902Z,2.67
2022-08-12T23:38:36.018Z,2.38
2022-08-12T23:41:12.716Z,2.72
2022-08-12T23:43:48.683Z,3.05
2022-08-12T23:46:22.741Z,3.08
2022-08-12T23:48:57.110Z,2.83
2022-08-12T23:51:27.164Z,2.90
2022-08-12T23:54:10.235Z,2.80
2022-08-12T23:56:48.755Z,2.35
2022-08-12T23:59:18.503Z,2.47
